Time;durP1;ratioP1;P1;durP2;ratioP2;P2;SDS_P1;SDS_P2;PMS_P1;PMS_P2;Temp;Humidity;BMP_temperature;BMP_pressure;BME280_temperature;BME280_humidity;BME280_pressure;Samples;Min_cycle;Max_cycle;Signal;HPM_P1;HPM_P2
2023/11/24 00:00:21;;;;;;;20.77;2.97;;;;;;;-144.05;86.21;57025.13;4971675;28;20464;-79
2023/11/24 00:02:47;;;;;;;28.83;4.20;;;;;;;-144.05;86.27;56991.13;4972324;28;20025;-77
2023/11/24 00:05:13;;;;;;;20.38;3.20;;;;;;;-144.05;86.46;56989.00;4979304;28;20039;-78
2023/11/24 00:07:39;;;;;;;14.13;2.72;;;;;;;-144.05;84.96;56972.03;5027244;28;20102;-78
2023/11/24 00:10:08;;;;;;;12.52;2.63;;;8.70;99.90;;;-144.05;84.02;57006.00;4976465;28;20110;-79
2023/11/24 00:12:34;;;;;;;19.50;3.25;;;;;;;-144.05;83.19;57016.63;4973012;28;20404;-79
2023/11/24 00:15:03;;;;;;;11.13;2.70;;;;;;;-144.05;81.60;57027.25;4981244;28;20050;-79
2023/11/24 00:17:30;;;;;;;12.63;2.22;;;;;;;-144.05;80.27;57016.63;4970919;28;20033;-80
2023/11/24 00:19:56;;;;;;;18.13;2.35;;;;;;;-144.05;79.78;57035.75;4995689;28;20441;-78
2023/11/24 00:22:23;;;;;;;12.63;2.30;;;;;;;-144.05;79.38;57008.13;4995533;28;20031;-80
2023/11/24 00:24:51;;;;;;;14.43;3.25;;;;;;;-144.05;79.07;57014.50;4971744;28;20112;-80
2023/11/24 00:27:21;;;;;;;13.93;2.33;;;8.30;99.90;;;-144.05;79.19;57035.75;4971494;28;20496;-78
2023/11/24 00:29:49;;;;;;;12.93;2.30;;;;;;;-144.05;79.17;57003.88;4971342;28;20050;-78
2023/11/24 00:32:15;;;;;;;15.93;2.60;;;;;;;-144.05;79.02;56999.63;4985732;28;20661;-79
2023/11/24 00:34:42;;;;;;;12.48;2.15;;;;;;;-144.05;78.77;57008.13;4971152;28;20022;-78
2023/11/24 00:37:09;;;;;;;13.57;2.47;;;;;;;-144.05;78.91;57027.25;4970767;28;20031;-78
2023/11/24 00:39:38;;;;;;;15.40;1.63;;;;;;;-144.05;78.59;57023.00;4970872;28;20049;-80
2023/11/24 00:42:05;;;;;;;16.30;2.28;;;;;;;-144.05;77.59;57044.25;4970896;28;20395;-81
2023/11/24 00:44:32;;;;;;;18.73;2.75;;;;;;;-144.05;77.76;57027.25;5014882;28;20037;-78
2023/11/24 00:46:58;;;;;;;10.90;1.95;;;;;;;-144.05;77.31;57048.50;4971102;28;20035;-78
2023/11/24 00:49:24;;;;;;;12.35;2.70;;;;;;;-144.05;77.55;57016.63;4971270;28;20035;-79
2023/11/24 00:51:50;;;;;;;15.60;2.13;;;;;;;-144.05;76.61;57048.50;4971218;28;20477;-80
2023/11/24 00:54:17;;;;;;;14.55;1.90;;;;;;;-144.05;75.47;57044.25;4971467;28;20027;-80
2023/11/24 00:56:43;;;;;;;8.50;1.70;;;;;;;-144.05;74.86;57001.75;4971389;28;20058;-80
2023/11/24 00:59:10;;;;;;;7.20;1.10;;;;;;;-144.05;73.45;57031.50;4970201;28;20049;-81
2023/11/24 01:01:37;;;;;;;12.15;2.20;;;;;;;-144.05;73.39;57046.38;4970782;28;20049;-78
2023/11/24 01:04:04;;;;;;;9.13;2.00;;;;;;;-144.05;73.03;57031.50;4971613;28;20023;-82
2023/11/24 01:06:30;;;;;;;13.57;3.05;;;;;;;-144.05;73.12;57016.63;4971649;28;20118;-77
2023/11/24 01:08:56;;;;;;;7.47;2.25;;;;;;;-144.05;72.91;57050.63;4972153;28;20049;-79
2023/11/24 01:11:23;;;;;;;13.82;1.80;;;;;;;-144.05;72.92;57014.50;4974220;28;20031;-78
2023/11/24 01:13:49;;;;;;;12.43;2.10;;;;;;;-144.05;72.49;57052.75;4969926;28;20050;-79
2023/11/24 01:16:15;;;;;;;13.52;1.85;;;;;;;-144.05;72.79;57033.63;4971886;28;20043;-81
2023/11/24 01:18:42;;;;;;;10.43;1.65;;;;;;;-144.05;73.60;57016.63;4971798;28;20050;-78
2023/11/24 01:21:09;;;;;;;9.82;2.10;;;;;;;-144.05;72.79;57014.50;4971237;28;20034;-79
2023/11/24 01:23:35;;;;;;;12.65;1.65;;;;;;;-144.05;73.31;57044.25;4970416;28;20087;-79
2023/11/24 01:26:03;;;;;;;13.98;2.55;;;7.80;99.90;;;-144.05;73.13;57018.75;4986348;28;20027;-77
2023/11/24 01:28:29;;;;;;;9.70;2.13;;;;;;;-144.05;72.68;57018.75;4970874;28;20073;-80
2023/11/24 01:30:55;;;;;;;9.85;1.60;;;;;;;-144.05;72.44;57014.50;4971211;28;20464;-79
2023/11/24 01:33:21;;;;;;;13.45;1.75;;;;;;;-144.05;73.11;57042.13;5011526;28;20043;-78
2023/11/24 01:35:49;;;;;;;7.88;1.75;;;;;;;-144.05;72.86;57029.38;5025187;28;20025;-79
2023/11/24 01:38:14;;;;;;;8.48;1.60;;;6.80;99.90;;;-144.05;73.32;57018.75;4973122;28;20027;-80
2023/11/24 01:40:41;;;;;;;14.40;1.95;;;7.60;99.90;;;-144.05;73.21;57001.75;4971014;28;20546;-78
2023/11/24 01:43:07;;;;;;;8.75;1.30;;;;;;;-144.05;72.37;57035.75;4971227;28;20026;-79
2023/11/24 01:45:34;;;;;;;4.78;1.42;;;;;;;-144.05;72.26;57031.50;4974107;28;20031;-75
2023/11/24 01:48:00;;;;;;;8.80;1.33;;;;;;;-144.05;72.61;57042.13;4974860;28;20090;-76
2023/11/24 01:50:26;;;;;;;10.48;1.58;;;;;;;-144.05;72.53;57003.88;4972798;28;20022;-81
2023/11/24 01:52:53;;;;;;;9.55;1.35;;;;;;;-144.05;72.42;57044.25;4971625;28;20035;-79
2023/11/24 01:55:23;;;;;;;9.00;1.05;;;;;;;-144.05;72.31;57056.97;4981762;28;20122;-79
2023/11/24 01:57:52;;;;;;;9.10;1.55;;;7.40;99.90;;;-144.05;72.36;57069.72;4970392;28;20571;-79
2023/11/24 02:00:19;;;;;;;3.75;0.90;;;;;;;-144.05;71.57;57040.00;4966593;28;20488;-81
2023/11/24 02:02:45;;;;;;;7.53;1.23;;;;;;;-144.05;71.10;57025.13;4969155;28;20360;-79
2023/11/24 02:05:12;;;;;;;6.45;1.45;;;;;;;-144.05;71.69;57018.75;5012355;28;20350;-77
2023/11/24 02:07:40;;;;;;;8.68;1.33;;;;;;;-144.05;71.10;57035.75;4970259;28;20081;-81
2023/11/24 02:10:10;;;;;;;8.32;1.50;;;;;;;-144.05;71.06;57023.00;4970477;28;20027;-79
2023/11/24 02:12:36;;;;;;;3.22;1.05;;;;;;;-144.05;71.10;57044.25;5056625;28;20030;-79
2023/11/24 02:15:03;;;;;;;8.10;1.10;;;;;;;-144.05;71.24;57050.63;4970497;28;20031;-79
2023/11/24 02:17:30;;;;;;;7.00;1.13;;;;;;;-144.05;71.60;57061.22;4988802;28;20023;-78
2023/11/24 02:19:57;;;;;;;13.23;1.45;;;;;;;-144.05;71.41;57056.97;4970125;28;20023;-79
2023/11/24 02:22:24;;;;;;;7.65;1.38;;;;;;;-144.05;71.50;57020.88;4970333;28;20080;-79
2023/11/24 02:24:51;;;;;;;9.93;1.63;;;;;;;-144.05;72.03;57029.38;4966253;28;20038;-77
2023/11/24 02:27:20;;;;;;;11.15;1.58;;;;;;;-144.05;71.74;57040.00;4969801;28;20022;-76
2023/11/24 02:29:50;;;;;;;11.25;1.60;;;;;;;-144.05;72.07;57040.00;4970070;28;20043;-79
2023/11/24 02:32:18;;;;;;;10.85;1.80;;;;;;;-144.05;72.54;57023.00;4972772;28;20060;-81
2023/11/24 02:34:44;;;;;;;11.80;1.98;;;;;;;-144.05;72.44;57042.13;4973676;28;20053;-80
2023/11/24 02:37:11;;;;;;;11.13;1.90;;;;;;;-144.05;72.09;57040.00;4988269;28;20527;-77
2023/11/24 02:39:37;;;;;;;9.32;1.45;;;;;;;-144.05;71.99;57052.75;4976662;28;20041;-80
2023/11/24 02:42:03;;;;;;;9.50;1.52;;;;;;;-144.05;71.88;57061.22;4973066;28;20023;-78
2023/11/24 02:44:30;;;;;;;9.20;1.40;;;;;;;-144.05;71.34;57035.75;4973015;28;20085;-81
2023/11/24 02:46:56;;;;;;;4.05;1.33;;;;;;;-144.05;72.11;57008.13;4973087;28;20456;-78
2023/11/24 02:49:22;;;;;;;7.30;1.35;;;;;;;-144.05;71.78;57010.25;4973134;28;20034;-78
2023/11/24 02:51:48;;;;;;;7.97;1.45;;;;;;;-144.05;71.92;57006.00;4987567;28;20345;-79
2023/11/24 02:54:15;;;;;;;8.77;1.80;;;;;;;-144.05;72.09;57027.25;4972969;28;20031;-78
2023/11/24 02:56:42;;;;;;;7.53;1.10;;;;;;;-144.05;71.84;57037.88;4993205;28;20034;-78
2023/11/24 02:59:08;;;;;;;6.00;1.20;;;;;;;-144.05;71.85;57046.38;5018189;28;20528;-77
2023/11/24 03:01:34;;;;;;;9.30;1.95;;;;;;;-144.05;71.87;57018.75;4973220;28;20116;-78
2023/11/24 03:04:01;;;;;;;10.77;1.42;;;;;;;-144.05;72.33;57018.75;4973128;28;20026;-80
2023/11/24 03:06:27;;;;;;;8.70;1.35;;;;;;;-144.05;72.34;57031.50;4973604;28;20122;-78
2023/11/24 03:08:53;;;;;;;8.65;1.70;;;;;;;-144.05;72.43;57033.63;4973196;28;20029;-77
2023/11/24 03:11:19;;;;;;;6.80;2.15;;;;;;;-144.05;72.84;57020.88;4971402;28;20027;-79
2023/11/24 03:13:46;;;;;;;6.93;1.10;;;;;;;-144.05;72.58;57033.63;4972336;28;20023;-79
2023/11/24 03:16:12;;;;;;;9.18;1.77;;;;;;;-144.05;72.21;57020.88;4988014;28;20027;-79
2023/11/24 03:18:38;;;;;;;10.00;1.70;;;;;;;-144.05;73.03;57046.38;4973169;28;20508;-77
2023/11/24 03:21:04;;;;;;;9.38;1.73;;;;;;;-144.05;72.61;57048.50;4973461;28;20034;-78
2023/11/24 03:23:31;;;;;;;23.52;2.38;;;;;;;-144.05;73.52;57014.50;4973428;28;20053;-76
2023/11/24 03:25:57;;;;;;;12.85;1.95;;;;;;;-144.05;73.40;57035.75;4973122;28;20061;-77
2023/11/24 03:28:23;;;;;;;7.13;1.52;;;;;;;-144.05;73.62;57061.22;4972797;28;20029;-80
2023/11/24 03:30:50;;;;;;;15.75;2.88;;;;;;;-144.05;73.94;57020.88;4994561;28;20027;-77
2023/11/24 03:33:16;;;;;;;11.23;2.83;;;;;;;-144.05;73.82;57027.25;4972125;28;20380;-77
2023/11/24 03:35:42;;;;;;;12.98;2.00;;;;;;;-144.05;74.04;57061.22;4972605;28;20053;-79
2023/11/24 03:38:08;;;;;;;4.70;1.13;;;;;;;-144.05;73.69;57050.63;4972551;28;20054;-78
2023/11/24 03:40:35;;;;;;;10.07;2.00;;;;;;;-144.05;74.31;57044.25;4972661;28;20539;-78
2023/11/24 03:43:02;;;;;;;7.35;1.48;;;6.70;99.90;;;-144.05;74.81;57027.25;4972430;28;20355;-78
2023/11/24 03:45:29;;;;;;;8.30;1.42;;;;;;;-144.05;74.68;57025.13;4970323;28;20533;-77
2023/11/24 03:47:56;;;;;;;6.10;1.33;;;;;;;-144.05;75.67;57040.00;4967716;28;20125;-76
2023/11/24 03:50:23;;;;;;;8.30;1.75;;;;;;;-144.05;76.49;57027.25;5004615;28;20089;-79
2023/11/24 03:52:49;;;;;;;13.90;3.05;;;;;;;-144.05;77.00;57050.63;4972195;28;20069;-81
2023/11/24 03:55:15;;;;;;;10.65;2.25;;;;;;;-144.05;78.73;57025.13;4972319;28;20035;-79
2023/11/24 03:57:44;;;;;;;9.95;2.22;;;;;;;-144.05;78.80;57061.22;4972128;28;20491;-78
2023/11/24 04:00:10;;;;;;;13.80;2.80;;;;;;;-144.05;80.12;57086.72;4972369;28;20050;-79
2023/11/24 04:02:37;;;;;;;12.25;1.90;;;;;;;-144.05;80.96;57052.75;4972252;28;20023;-79
2023/11/24 04:05:03;;;;;;;5.72;1.33;;;;;;;-144.05;81.09;57029.38;4972300;28;20050;-78
2023/11/24 04:07:30;;;;;;;11.55;1.73;;;;;;;-144.05;80.66;57020.88;4971835;28;20027;-80
2023/11/24 04:09:56;;;;;;;10.05;1.85;;;;;;;-144.05;80.74;57061.22;4972189;28;20500;-77
2023/11/24 04:12:22;;;;;;;6.15;1.38;;;;;;;-144.05;80.92;57035.75;4975223;28;20507;-78
2023/11/24 04:14:49;;;;;;;10.38;1.73;;;;;;;-144.05;81.38;57061.22;4971847;28;20042;-79
2023/11/24 04:17:15;;;;;;;14.52;1.80;;;;;;;-144.05;81.89;57014.50;4969952;28;20513;-78
2023/11/24 04:19:41;;;;;;;7.35;1.70;;;;;;;-144.05;81.86;57050.63;4971339;28;20093;-78
2023/11/24 04:22:07;;;;;;;10.48;2.17;;;;;;;-144.05;81.94;57054.88;4971424;28;20097;-79
2023/11/24 04:24:33;;;;;;;10.38;1.83;;;;;;;-144.05;81.97;57056.97;4987192;28;20084;-80
2023/11/24 04:27:00;;;;;;;11.02;1.80;;;;;;;-144.05;81.58;57027.25;4971236;28;20082;-80
2023/11/24 04:29:26;;;;;;;6.20;1.30;;;;;;;-144.05;81.91;57031.50;4971544;28;20392;-79
2023/11/24 04:31:54;;;;;;;11.10;2.08;;;6.20;99.90;;;-144.05;81.32;57052.75;4971329;28;20550;-81
2023/11/24 04:34:23;;;;;;;9.43;1.50;;;6.20;99.90;;;-144.05;81.17;57044.25;4966286;28;20039;-77
2023/11/24 04:36:51;;;;;;;6.55;1.50;;;;;;;-144.05;80.79;57052.75;4971132;28;20053;-77
2023/11/24 04:39:17;;;;;;;10.93;1.70;;;;;;;-144.05;80.85;57071.84;4971342;28;20388;-79
2023/11/24 04:41:43;;;;;;;8.02;2.25;;;;;;;-144.05;80.37;57054.88;4969951;28;20407;-77
2023/11/24 04:44:09;;;;;;;8.63;1.70;;;;;;;-144.05;80.94;57042.13;4971100;28;20019;-78
2023/11/24 04:46:35;;;;;;;6.78;1.40;;;;;;;-144.05;80.75;57056.97;4971085;28;20031;-78
2023/11/24 04:49:03;;;;;;;11.13;1.60;;;;;;;-144.05;80.24;57076.09;4969892;28;20110;-81
2023/11/24 04:51:33;;;;;;;7.63;1.30;;;;;;;-144.05;80.12;57061.22;4970415;28;20035;-79
2023/11/24 04:54:02;;;;;;;9.80;2.00;;;;;;;-144.05;80.01;57020.88;4993706;28;20108;-79
2023/11/24 04:56:29;;;;;;;14.35;1.83;;;;;;;-144.05;80.27;57027.25;4971014;28;20027;-78
2023/11/24 04:58:56;;;;;;;6.35;1.80;;;;;;;-144.05;80.30;57012.38;4972608;28;20399;-77
2023/11/24 05:01:23;;;;;;;16.88;1.75;;;;;;;-144.05;80.27;57035.75;5008957;28;20118;-78
2023/11/24 05:03:49;;;;;;;5.28;1.30;;;;;;;-144.05;80.72;57025.13;4971282;28;20097;-77
2023/11/24 05:06:19;;;;;;;5.85;1.13;;;;;;;-144.05;81.13;57044.25;4971249;28;20026;-78
2023/11/24 05:08:45;;;;;;;8.68;1.52;;;;;;;-144.05;81.19;57023.00;4970011;28;20097;-77
2023/11/24 05:11:12;;;;;;;9.93;1.60;;;;;;;-144.05;81.41;57044.25;5036770;28;20028;-80
2023/11/24 05:13:38;;;;;;;8.43;2.03;;;;;;;-144.05;81.61;57033.63;4976146;28;20042;-78
2023/11/24 05:16:05;;;;;;;7.78;1.45;;;;;;;-144.05;81.55;57052.75;4998941;28;20035;-79
2023/11/24 05:18:31;;;;;;;11.23;2.40;;;;;;;-144.05;82.34;57052.75;4975571;28;20030;-81
2023/11/24 05:20:58;;;;;;;17.70;2.42;;;;;;;-144.05;82.18;56993.25;4975021;28;20062;-76
2023/11/24 05:23:24;;;;;;;8.43;1.90;;;;;;;-144.05;82.21;57048.50;4973988;28;20039;-79
2023/11/24 05:25:53;;;;;;;18.25;2.28;;;;;;;-144.05;82.40;57003.88;4970207;28;20469;-76
2023/11/24 05:28:19;;;;;;;17.42;2.00;;;;;;;-144.05;82.19;57063.34;4966417;28;20058;-76
2023/11/24 05:30:45;;;;;;;14.70;1.95;;;;;;;-144.05;81.86;57046.38;4986010;28;20030;-80
2023/11/24 05:33:12;;;;;;;9.82;1.88;;;;;;;-144.05;81.14;57042.13;4972299;28;20442;-77
2023/11/24 05:35:39;;;;;;;7.72;2.35;;;;;;;-144.05;80.75;57069.72;4998599;28;20110;-78
2023/11/24 05:38:05;;;;;;;9.50;1.55;;;;;;;-144.05;80.44;57054.88;4969948;28;20035;-83
2023/11/24 05:40:31;;;;;;;12.60;1.73;;;;;;;-144.05;79.91;57027.25;4997649;28;20037;-78
2023/11/24 05:42:57;;;;;;;9.52;2.28;;;;;;;-144.05;79.82;57042.13;4971835;28;20514;-79
2023/11/24 05:45:24;;;;;;;10.98;1.70;;;;;;;-144.05;79.46;57035.75;4975422;28;20045;-79
2023/11/24 05:47:50;;;;;;;10.35;1.50;;;;;;;-144.05;79.47;57035.75;4972238;28;20027;-75
2023/11/24 05:50:22;;;;;;;11.43;1.65;;;;;;;-144.05;79.15;57035.75;4972286;28;20070;-77
2023/11/24 05:52:49;;;;;;;5.95;1.33;;;;;;;-144.05;78.42;57048.50;4971513;28;20100;-77
2023/11/24 05:55:15;;;;;;;6.95;1.70;;;6.10;99.90;;;-144.05;78.31;57056.97;4970899;28;20069;-77
2023/11/24 05:57:42;;;;;;;20.02;2.03;;;;;;;-144.05;78.62;57027.25;4971731;28;20030;-79
2023/11/24 06:00:09;;;;;;;8.75;1.55;;;;;;;-144.05;78.42;57035.75;4971288;28;20429;-79
2023/11/24 06:02:36;;;;;;;6.45;1.35;;;;;;;-144.05;78.32;57048.50;4984576;28;20034;-76
2023/11/24 06:05:03;;;;;;;14.73;2.45;;;5.80;99.90;;;-144.05;78.28;57048.50;4966920;28;20504;-77
2023/11/24 06:07:29;;;;;;;19.75;3.72;;;;;;;-144.05;79.33;57040.00;4972947;28;20030;-78
2023/11/24 06:09:55;;;;;;;19.95;3.65;;;;;;;-144.05;79.63;57048.50;5001858;28;20046;-77
2023/11/24 06:12:22;;;;;;;19.80;2.70;;;7.10;99.90;;;-144.05;79.20;57044.25;4987730;28;20042;-80
2023/11/24 06:14:48;;;;;;;27.63;3.25;;;;;;;-144.05;79.36;57046.38;5006005;28;20027;-80
2023/11/24 06:17:14;;;;;;;22.67;2.85;;;;;;;-144.05;79.69;57048.50;4982381;28;20035;-79
2023/11/24 06:19:40;;;;;;;19.42;3.28;;;;;;;-144.05;80.31;57029.38;4982903;28;20066;-79
2023/11/24 06:22:06;;;;;;;8.98;1.85;;;;;;;-144.05;79.70;57050.63;5043364;28;20094;-78
2023/11/24 06:24:33;;;;;;;9.40;1.52;;;;;;;-144.05;79.21;57035.75;4983653;28;20088;-77
2023/11/24 06:26:59;;;;;;;10.07;1.30;;;;;;;-144.05;79.80;57031.50;4983071;28;20022;-78
2023/11/24 06:29:25;;;;;;;11.60;2.60;;;;;;;-144.05;79.73;57052.75;4974577;28;20028;-80
2023/11/24 06:31:51;;;;;;;16.58;2.20;;;;;;;-144.05;79.73;57040.00;4974660;28;20035;-79
2023/11/24 06:34:17;;;;;;;8.15;2.00;;;;;;;-144.05;79.71;57048.50;5022066;28;20040;-77
2023/11/24 06:36:45;;;;;;;9.55;2.05;;;;;;;-144.05;80.36;57073.97;5005674;28;20031;-79
2023/11/24 06:39:11;;;;;;;13.93;2.03;;;6.30;99.90;;;-144.05;79.82;57044.25;4993616;28;20489;-78
2023/11/24 06:41:37;;;;;;;11.98;2.55;;;5.90;99.90;;;-144.05;80.20;57067.59;4991252;28;20045;-78
2023/11/24 06:44:04;;;;;;;11.70;3.28;;;1.50;99.90;;;-144.05;80.28;57059.09;4978069;28;20031;-78
2023/11/24 06:46:30;;;;;;;13.60;2.05;;;;;;;-144.05;80.39;57061.22;4977973;28;20023;-76
2023/11/24 06:48:56;;;;;;;8.98;2.25;;;6.30;99.90;;;-144.05;81.52;57054.88;4977804;28;20027;-78
2023/11/24 06:51:22;;;;;;;9.50;2.65;;;2.30;99.90;;;-144.05;81.52;57033.63;4976532;28;20038;-78
2023/11/24 06:53:48;;;;;;;11.00;2.15;;;;;;;-144.05;81.94;57061.22;4975318;28;20488;-81
2023/11/24 06:56:15;;;;;;;6.88;1.75;;;;;;;-144.05;82.27;57065.47;4977002;28;20058;-79
2023/11/24 06:58:41;;;;;;;14.35;2.60;;;;;;;-144.05;82.41;57029.38;4975947;28;20399;-79
2023/11/24 07:01:08;;;;;;;9.07;2.45;;;;;;;-144.05;82.31;57048.50;4977443;28;20073;-80
2023/11/24 07:03:34;;;;;;;11.30;1.90;;;;;;;-144.05;82.06;57056.97;4976198;28;20086;-77
2023/11/24 07:06:01;;;;;;;8.55;2.20;;;;;;;-144.05;81.11;57010.25;4976081;28;20089;-78
2023/11/24 07:08:27;;;;;;;16.02;2.65;;;5.90;99.90;;;-144.05;81.36;57046.38;4986552;28;20034;-81
2023/11/24 07:10:54;;;;;;;12.13;2.83;;;;;;;-144.05;82.04;57025.13;4975810;28;20490;-76
2023/11/24 07:13:20;;;;;;;7.80;2.58;;;;;;;-144.05;81.19;57069.72;4972782;28;20032;-78
2023/11/24 07:15:50;;;;;;;13.90;3.00;;;;;;;-144.05;80.86;57061.22;4974835;28;20125;-78
2023/11/24 07:18:16;;;;;;;13.20;2.67;;;;;;;-144.05;81.21;57040.00;4976614;28;20038;-76
2023/11/24 07:20:43;;;;;;;12.20;2.58;;;6.50;99.90;;;-144.05;80.74;57035.75;4975732;28;20058;-79
2023/11/24 07:23:09;;;;;;;15.68;2.75;;;;;;;-144.05;80.84;57048.50;4975170;28;20059;-77
2023/11/24 07:25:35;;;;;;;7.50;2.53;;;7.60;99.90;;;-144.05;80.55;57031.50;4972376;28;20057;-79
2023/11/24 07:28:04;;;;;;;16.45;2.88;;;6.00;99.90;;;-144.05;81.19;57067.59;4972893;28;20027;-78
2023/11/24 07:30:31;;;;;;;11.80;2.53;;;;;;;-144.05;81.80;57071.84;4995068;28;20027;-78
2023/11/24 07:32:56;;;;;;;7.40;1.85;;;2.20;99.90;;;-144.05;81.12;57031.50;4979218;28;20027;-81
2023/11/24 07:35:23;;;;;;;9.52;1.75;;;2.50;99.90;;;-144.05;80.82;57056.97;4979090;28;20506;-79
2023/11/24 07:37:49;;;;;;;9.52;1.73;;;;;;;-144.05;80.01;57025.13;4975828;28;20030;-80
2023/11/24 07:40:16;;;;;;;9.38;1.95;;;3.40;99.90;;;-144.05;79.78;57044.25;4974148;28;20061;-80
2023/11/24 07:42:43;;;;;;;13.13;2.17;;;;;;;-144.05;79.53;57048.50;5005342;28;20098;-81
2023/11/24 07:45:11;;;;;;;12.95;2.20;;;6.20;99.90;;;-144.05;80.05;57056.97;4972482;28;20027;-80
2023/11/24 07:47:37;;;;;;;9.48;2.10;;;;;;;-144.05;79.67;57044.25;4973953;28;20034;-80
2023/11/24 07:50:05;;;;;;;22.23;3.15;;;;;;;-144.05;79.83;57052.75;4973941;28;20391;-80
2023/11/24 07:52:31;;;;;;;13.77;2.55;;;;;;;-144.05;80.04;57054.88;4999808;28;20029;-80
2023/11/24 07:54:57;;;;;;;10.70;1.80;;;;;;;-144.05;80.09;57033.63;4976640;28;20465;-81
2023/11/24 07:57:25;;;;;;;9.95;2.33;;;;;;;-144.05;80.01;57029.38;4973487;28;20041;-79
2023/11/24 07:59:51;;;;;;;13.20;2.50;;;6.20;99.90;;;-144.05;80.15;57025.13;4974297;28;20031;-79
2023/11/24 08:02:18;;;;;;;14.13;2.78;;;;;;;-144.05;80.75;57067.59;4973863;28;20026;-80
2023/11/24 08:04:45;;;;;;;15.50;3.08;;;;;;;-144.05;79.72;57044.25;4971948;28;20096;-80
2023/11/24 08:07:12;;;;;;;11.65;1.60;;;;;;;-144.05;79.42;57059.09;4973160;28;20031;-77
2023/11/24 08:09:38;;;;;;;7.57;2.13;;;;;;;-144.05;79.24;57018.75;4989563;28;20030;-80
2023/11/24 08:12:05;;;;;;;15.05;3.20;;;2.40;99.90;;;-144.05;79.49;57012.38;4971642;28;20034;-81
2023/11/24 08:14:31;;;;;;;10.98;1.98;;;;;;;-144.05;79.56;57061.22;4973189;28;20104;-83
2023/11/24 08:16:57;;;;;;;11.23;2.38;;;;;;;-144.05;79.37;57067.59;4973148;28;20371;-78
2023/11/24 08:19:26;;;;;;;23.83;3.92;;;;;;;-144.05;79.27;57035.75;4988416;28;20067;-80
2023/11/24 08:21:52;;;;;;;12.98;2.60;;;7.30;99.90;;;-144.05;79.60;57065.47;4973763;28;20034;-80
2023/11/24 08:24:18;;;;;;;14.02;3.47;;;;;;;-144.05;79.08;57018.75;4972095;28;20496;-79
2023/11/24 08:26:45;;;;;;;6.53;2.33;;;6.40;99.90;;;-144.05;78.87;57040.00;4973848;28;20039;-79
2023/11/24 08:29:12;;;;;;;16.25;2.97;;;;;;;-144.05;77.73;57040.00;4977646;28;20179;-79
2023/11/24 08:31:40;;;;;;;10.95;1.90;;;7.10;99.90;;;-144.05;77.73;57031.50;4973195;28;20030;-79
2023/11/24 08:34:08;;;;;;;13.45;2.38;;;;;;;-144.05;79.05;57042.13;4971158;28;20022;-82
2023/11/24 08:36:35;;;;;;;7.35;1.75;;;3.40;99.90;;;-144.05;79.77;57031.50;4972564;28;20083;-82
2023/11/24 08:39:03;;;;;;;6.30;1.63;;;2.30;99.90;;;-144.05;80.27;57035.75;4985667;28;20058;-78
2023/11/24 08:41:30;;;;;;;12.82;1.50;;;;;;;-144.05;80.41;57067.59;4972720;28;20030;-77
2023/11/24 08:43:56;;;;;;;6.90;1.38;;;6.10;99.90;;;-144.05;80.60;57046.38;5005051;28;20029;-78
2023/11/24 08:46:24;;;;;;;12.40;2.88;;;;;;;-144.05;80.80;57035.75;4972109;28;20027;-78
2023/11/24 08:48:49;;;;;;;8.93;2.00;;;6.60;99.90;;;-144.05;81.14;57059.09;4972506;28;20488;-80
2023/11/24 08:51:17;;;;;;;7.07;1.40;;;;;;;-144.05;81.05;57033.63;4972568;28;20518;-81
2023/11/24 08:53:43;;;;;;;9.95;1.73;;;6.30;99.90;;;-144.05;81.31;57059.09;4973323;28;20027;-80
2023/11/24 08:56:10;;;;;;;7.43;1.50;;;6.30;99.90;;;-144.05;80.71;57059.09;4969479;28;20618;-80
2023/11/24 08:58:39;;;;;;;15.80;2.45;;;;;;;-144.05;80.77;57078.22;4972362;28;20019;-80
2023/11/24 09:01:06;;;;;;;8.27;1.88;;;;;;;-144.05;80.75;57044.25;4972701;28;20027;-81
2023/11/24 09:03:32;;;;;;;7.47;1.65;;;;;;;-144.05;80.76;57025.13;4970926;28;20069;-80
2023/11/24 09:06:00;;;;;;;8.45;1.30;;;;;;;-144.05;80.67;57029.38;4972701;28;20055;-78
2023/11/24 09:08:27;;;;;;;5.38;0.98;;;;;;;-144.05;80.30;57035.75;4972465;28;20030;-78
2023/11/24 09:10:53;;;;;;;5.80;1.15;;;;;;;-144.05;80.10;57044.25;4984543;28;20034;-79
2023/11/24 09:13:20;;;;;;;7.90;1.80;;;;;;;-144.05;79.85;56997.50;4988944;28;20020;-79
2023/11/24 09:15:46;;;;;;;5.15;1.35;;;1.40;99.90;;;-144.05;80.39;57027.25;4987550;28;20026;-78
2023/11/24 09:18:12;;;;;;;7.57;1.70;;;3.70;99.90;;;-144.05;78.81;57029.38;4972361;28;20031;-78
2023/11/24 09:20:38;;;;;;;6.80;1.48;;;;;;;-144.05;77.42;57025.13;4972432;28;20084;-79
2023/11/24 09:23:05;;;;;;;2.80;1.80;;;7.10;99.90;;;-144.05;76.19;57029.38;4970153;28;20034;-77
2023/11/24 09:25:32;;;;;;;6.63;1.80;;;8.10;99.90;;;-144.05;75.36;57001.75;5006291;28;20102;-78
2023/11/24 09:28:04;;;;;;;6.50;2.00;;;6.70;99.90;;;-144.05;75.10;57001.75;4970451;28;20027;-80
2023/11/24 09:30:31;;;;;;;5.53;2.20;;;;;;;-144.05;75.56;57069.72;4971261;28;20091;-78
2023/11/24 09:32:56;;;;;;;7.55;2.97;;;3.30;99.90;;;-144.05;76.62;57023.00;4971975;28;20399;-79
2023/11/24 09:35:25;;;;;;;7.10;1.58;;;6.90;99.90;;;-144.05;76.74;57029.38;4987397;28;20046;-80
2023/11/24 09:37:52;;;;;;;7.65;2.03;;;;;;;-144.05;77.77;57001.75;4970227;28;20419;-78
2023/11/24 09:40:22;;;;;;;6.30;3.40;;;6.50;99.90;;;-144.05;77.74;57006.00;4987433;28;20030;-80
2023/11/24 09:42:51;;;;;;;6.63;2.17;;;6.30;99.90;;;-144.05;77.49;57031.50;4970573;28;20030;-81
2023/11/24 09:45:26;;;;;;;5.35;1.40;;;6.30;99.90;;;-144.05;78.33;57016.63;4985704;28;20088;-78
2023/11/24 09:47:54;;;;;;;5.88;1.27;;;;;;;-144.05;77.73;56995.38;4979987;28;20113;-78
2023/11/24 09:50:25;;;;;;;9.50;2.45;;;;;;;-144.05;77.54;57018.75;4998520;28;20027;-78
2023/11/24 09:52:56;;;;;;;3.33;1.58;;;6.20;99.90;;;-144.05;77.95;57040.00;4970578;28;20031;-78
2023/11/24 09:55:24;;;;;;;4.45;0.90;;;6.10;99.90;;;-144.05;77.35;57035.75;4964586;28;20414;-78
2023/11/24 09:57:50;;;;;;;2.28;1.08;;;;;;;-144.05;77.19;57046.38;4970511;28;20029;-78
2023/11/24 10:00:19;;;;;;;4.13;1.58;;;;;;;-144.05;77.43;57076.09;4968837;28;20117;-80
2023/11/24 10:02:47;;;;;;;4.10;0.90;;;6.10;99.90;;;-144.05;77.09;57046.38;5006665;28;20028;-77
2023/11/24 10:05:22;;;;;;;2.65;0.90;;;6.80;99.90;;;-144.05;76.74;57014.50;4969538;28;20069;-79
2023/11/24 10:07:53;;;;;;;2.20;1.00;;;7.00;99.90;;;-144.05;73.58;57044.25;4970377;28;20095;-78
2023/11/24 10:10:27;;;;;;;8.43;1.60;;;6.90;99.90;;;-144.05;73.05;57031.50;4970620;28;20030;-80
2023/11/24 10:12:59;;;;;;;6.57;0.70;;;6.40;99.90;;;-144.05;74.81;57054.88;4975781;28;20088;-80
2023/11/24 10:15:26;;;;;;;2.70;0.63;;;;;;;-144.05;76.12;57050.63;4979609;28;20030;-80
2023/11/24 10:17:52;;;;;;;1.38;0.38;;;;;;;-144.05;75.85;57056.97;4971437;28;20392;-77
2023/11/24 10:20:22;;;;;;;2.25;0.30;;;5.60;99.90;;;-144.05;76.07;57048.50;4969233;28;20504;-79
2023/11/24 10:22:50;;;;;;;2.67;0.50;;;5.60;99.90;;;-144.05;76.59;57018.75;4970361;28;20027;-79
2023/11/24 10:25:23;;;;;;;2.17;0.60;;;5.60;99.90;;;-144.05;77.13;57044.25;4970627;28;20515;-80
2023/11/24 10:28:00;;;;;;;1.42;0.32;;;5.60;99.90;;;-144.05;77.76;57033.63;4969221;28;20030;-79
2023/11/24 10:30:26;;;;;;;2.45;0.40;;;;;;;-144.05;78.31;57023.00;4967802;28;20046;-78
2023/11/24 10:32:53;;;;;;;2.10;0.38;;;;;;;-144.05;78.03;57056.97;4985425;28;20023;-79
2023/11/24 10:35:19;;;;;;;2.28;0.65;;;;;;;-144.05;77.02;57029.38;4970089;28;20094;-81
2023/11/24 10:37:45;;;;;;;1.35;0.77;;;5.30;99.90;;;-144.05;76.43;57033.63;4970322;28;20035;-78
2023/11/24 10:40:17;;;;;;;3.25;0.40;;;5.20;99.90;;;-144.05;76.74;57061.22;4970527;28;20487;-81
2023/11/24 10:42:47;;;;;;;0.95;0.40;;;5.20;99.90;;;-144.05;77.26;57046.38;4968591;28;20054;-78
2023/11/24 10:45:20;;;;;;;0.75;0.45;;;5.30;99.90;;;-144.05;76.86;57029.38;4969798;28;20079;-78
2023/11/24 10:48:15;;;;;;;2.25;0.50;;;5.40;99.90;;;-144.05;76.81;57042.13;4973466;28;20027;-77
2023/11/24 10:50:55;;;;;;;3.15;0.47;;;6.40;99.90;;;-144.05;77.01;57054.88;4964733;28;20025;-79
2023/11/24 10:53:38;;;;;;;2.67;0.65;;;1.80;99.90;;;-144.05;77.46;57054.88;4964607;28;20030;-80
2023/11/24 10:56:05;;;;;;;1.17;0.82;;;1.10;99.90;;;-144.05;77.13;57046.38;4973957;28;20495;-78